Time;durP1;ratioP1;P1;durP2;ratioP2;P2;SDS_P1;SDS_P2;PMS_P1;PMS_P2;Temp;Humidity;BMP_temperature;BMP_pressure;BME280_temperature;BME280_humidity;BME280_pressure;Samples;Min_cycle;Max_cycle;Signal;HPM_P1;HPM_P2
2022/09/28 00:01:19;;;;;;;7.38;5.40;;;9.50;99.90;;;;;;4975034;28;93238;-73
2022/09/28 00:03:48;;;;;;;10.02;6.20;;;9.50;99.90;;;;;;4976311;28;92344;-73
2022/09/28 00:06:20;;;;;;;8.43;6.95;;;9.40;99.90;;;;;;4975073;28;92506;-73
2022/09/28 00:08:51;;;;;;;9.45;5.93;;;9.40;99.90;;;;;;4975745;28;98092;-73
2022/09/28 00:11:19;;;;;;;6.03;5.32;;;9.40;99.90;;;;;;4975065;28;94293;-72
2022/09/28 00:13:52;;;;;;;9.52;6.38;;;9.30;99.90;;;;;;4975964;28;92344;-73
2022/09/28 00:16:21;;;;;;;6.93;5.80;;;9.30;99.90;;;;;;4975048;28;92527;-72
2022/09/28 00:18:49;;;;;;;8.40;6.43;;;9.40;99.90;;;;;;4973895;28;95722;-72
2022/09/28 00:21:21;;;;;;;7.13;6.05;;;9.30;99.90;;;;;;4974398;28;100616;-73
2022/09/28 00:26:45;;;;;;;8.65;6.07;;;9.40;99.90;;;;;;4974388;28;92525;-73
2022/09/28 00:29:20;;;;;;;7.20;5.88;;;9.40;99.90;;;;;;4974542;28;95789;-73
2022/09/28 00:31:50;;;;;;;6.25;5.72;;;9.40;99.90;;;;;;4975949;28;92960;-73
2022/09/28 00:34:19;;;;;;;8.07;6.13;;;9.40;99.90;;;;;;4974601;28;92431;-72
2022/09/28 00:36:47;;;;;;;12.50;6.35;;;9.40;99.90;;;;;;4974878;28;91767;-73
2022/09/28 00:39:15;;;;;;;9.90;6.80;;;9.40;99.90;;;;;;4974311;28;95754;-73
2022/09/28 00:41:42;;;;;;;7.70;6.07;;;9.40;99.90;;;;;;4973976;28;95461;-73
2022/09/28 00:44:24;;;;;;;7.55;5.55;;;9.40;99.90;;;;;;4973367;28;95390;-73
2022/09/28 00:46:51;;;;;;;9.60;6.13;;;9.50;99.90;;;;;;4975545;28;92421;-73
2022/09/28 00:49:23;;;;;;;9.27;7.43;;;9.40;99.90;;;;;;4957969;28;95758;-73
2022/09/28 00:51:50;;;;;;;9.95;6.80;;;9.40;99.90;;;;;;4974238;28;92977;-73
2022/09/28 00:54:17;;;;;;;8.02;6.35;;;9.40;99.90;;;;;;4974117;28;92420;-73
2022/09/28 00:56:47;;;;;;;7.15;6.40;;;9.40;99.90;;;;;;4973996;28;94666;-73
2022/09/28 00:59:14;;;;;;;9.70;6.93;;;9.40;99.90;;;;;;4975585;28;93630;-73
2022/09/28 01:01:41;;;;;;;10.35;6.63;;;9.30;99.90;;;;;;4973850;28;107589;-73
2022/09/28 01:04:09;;;;;;;7.07;6.03;;;9.30;99.90;;;;;;4958044;28;92510;-73
2022/09/28 01:06:37;;;;;;;6.82;6.00;;;9.30;99.90;;;;;;4974423;28;92425;-73
2022/09/28 01:09:09;;;;;;;7.57;6.18;;;9.30;99.90;;;;;;4956287;28;98362;-72
2022/09/28 01:11:38;;;;;;;6.00;5.50;;;9.20;99.90;;;;;;4973881;28;97676;-73
2022/09/28 01:14:10;;;;;;;10.95;6.43;;;9.20;99.90;;;;;;4975917;28;92411;-73
2022/09/28 01:17:02;;;;;;;6.80;5.97;;;9.20;99.90;;;;;;4977604;28;92563;-73
2022/09/28 01:20:04;;;;;;;6.40;5.72;;;9.20;99.90;;;;;;4977010;28;95612;-73
2022/09/28 01:22:55;;;;;;;6.18;5.57;;;9.10;99.90;;;;;;4977215;28;95524;-73
2022/09/28 01:25:38;;;;;;;7.25;6.38;;;9.10;99.90;;;;;;4961262;28;92594;-73
2022/09/28 01:28:11;;;;;;;7.18;5.90;;;9.00;99.90;;;;;;4961333;28;91763;-73
2022/09/28 01:31:02;;;;;;;7.95;5.75;;;8.90;99.90;;;;;;4960931;28;95676;-73
2022/09/28 01:33:46;;;;;;;6.55;5.90;;;8.90;99.90;;;;;;4968528;28;95327;-73
2022/09/28 01:36:51;;;;;;;7.25;5.47;;;8.90;99.90;;;;;;4976034;28;94880;-73
2022/09/28 01:39:24;;;;;;;6.82;5.70;;;8.80;99.90;;;;;;4928672;28;92717;-72
2022/09/28 01:41:55;;;;;;;7.40;6.30;;;8.80;99.90;;;;;;4960563;28;95528;-72
2022/09/28 01:44:27;;;;;;;8.20;6.32;;;8.70;99.90;;;;;;4960952;28;94142;-73
2022/09/28 01:47:02;;;;;;;10.75;6.30;;;8.70;99.90;;;;;;4961076;28;93050;-72
2022/09/28 01:49:47;;;;;;;7.57;5.82;;;8.70;99.90;;;;;;4977138;28;92518;-73
2022/09/28 01:52:26;;;;;;;10.25;6.78;;;8.70;99.90;;;;;;4976862;28;95763;-72
2022/09/28 01:55:09;;;;;;;7.28;6.28;;;8.70;99.90;;;;;;4977076;28;94734;-73
2022/09/28 01:57:43;;;;;;;11.60;7.13;;;8.70;99.90;;;;;;4976781;28;92463;-73
2022/09/28 02:00:13;;;;;;;10.80;8.10;;;8.60;99.90;;;;;;4976506;28;92535;-73
2022/09/28 02:02:47;;;;;;;12.20;8.80;;;8.60;99.90;;;;;;4976665;28;99830;-72
2022/09/28 02:05:27;;;;;;;11.63;7.65;;;8.60;99.90;;;;;;4976470;28;97525;-73
2022/09/28 02:07:58;;;;;;;11.63;8.52;;;8.60;99.90;;;;;;4977992;28;92465;-73
2022/09/28 02:10:39;;;;;;;10.43;7.78;;;8.60;99.90;;;;;;4960655;28;92404;-73
2022/09/28 02:13:31;;;;;;;11.48;8.40;;;8.60;99.90;;;;;;4976364;28;95487;-73
2022/09/28 02:16:23;;;;;;;12.05;8.23;;;8.60;99.90;;;;;;4960072;28;94969;-72
2022/09/28 02:18:51;;;;;;;9.75;7.80;;;8.50;99.90;;;;;;4959683;28;92533;-72
2022/09/28 02:21:30;;;;;;;10.82;8.70;;;8.50;99.90;;;;;;4960650;28;91885;-73
2022/09/28 02:24:02;;;;;;;10.23;8.27;;;8.50;99.90;;;;;;4976054;28;95902;-73
2022/09/28 02:26:33;;;;;;;13.02;7.68;;;8.50;99.90;;;;;;4975118;28;95033;-73
2022/09/28 02:29:00;;;;;;;9.32;7.90;;;8.50;99.90;;;;;;4974875;28;94890;-72
2022/09/28 02:31:27;;;;;;;8.18;7.03;;;8.50;99.90;;;;;;4976254;28;92698;-73
2022/09/28 02:33:56;;;;;;;7.00;6.30;;;8.50;99.90;;;;;;4975900;28;96087;-73
2022/09/28 02:36:25;;;;;;;8.30;6.65;;;8.50;99.90;;;;;;4977474;28;92778;-73
2022/09/28 02:38:52;;;;;;;6.30;5.60;;;8.50;99.90;;;;;;4976090;28;92540;-73
2022/09/28 02:41:45;;;;;;;8.25;6.63;;;8.40;99.90;;;;;;4976170;28;92470;-72
2022/09/28 02:44:47;;;;;;;6.85;6.15;;;8.50;99.90;;;;;;4975781;28;95555;-72
2022/09/28 02:47:29;;;;;;;7.53;6.35;;;8.40;99.90;;;;;;4976047;28;94397;-73
2022/09/28 02:50:14;;;;;;;10.68;7.38;;;8.40;99.90;;;;;;4959688;28;92648;-73
2022/09/28 02:53:15;;;;;;;14.73;7.75;;;8.50;99.90;;;;;;4959856;28;92455;-73
2022/09/28 02:55:48;;;;;;;19.48;9.25;;;8.50;99.90;;;;;;4958381;28;98116;-73
2022/09/28 02:58:34;;;;;;;35.85;9.98;;;8.50;99.90;;;;;;4975413;28;98211;-73
2022/09/28 03:01:14;;;;;;;33.33;9.38;;;8.60;99.90;;;;;;4959048;28;92439;-73
2022/09/28 03:03:47;;;;;;;62.40;10.65;;;8.60;99.90;;;;;;4959725;28;92566;-72
2022/09/28 03:06:45;;;;;;;59.80;10.93;;;8.60;99.90;;;;;;4974512;28;95819;-72
2022/09/28 03:09:20;;;;;;;69.35;10.82;;;8.60;99.90;;;;;;4957746;28;95623;-73
2022/09/28 03:12:00;;;;;;;54.22;11.18;;;8.60;99.90;;;;;;4975025;28;92489;-72
2022/09/28 03:14:27;;;;;;;78.93;11.63;;;8.70;99.90;;;;;;4975395;28;91813;-73
2022/09/28 03:16:56;;;;;;;89.95;12.43;;;8.60;99.90;;;;;;4974849;28;95495;-72
2022/09/28 03:19:29;;;;;;;89.38;12.35;;;8.60;99.90;;;;;;4973738;28;95434;-73
2022/09/28 03:21:56;;;;;;;78.13;11.85;;;8.60;99.90;;;;;;4973898;28;94977;-73
2022/09/28 03:24:22;;;;;;;113.22;13.30;;;8.60;99.90;;;;;;4958542;28;92453;-73
2022/09/28 03:26:50;;;;;;;134.13;13.57;;;8.60;99.90;;;;;;4958702;28;94523;-73
2022/09/28 03:29:19;;;;;;;130.30;14.82;;;8.60;99.90;;;;;;4974492;28;95552;-72
2022/09/28 03:31:50;;;;;;;75.32;11.35;;;8.60;99.90;;;;;;4974866;28;92448;-73
2022/09/28 03:34:17;;;;;;;168.63;15.23;;;8.70;99.90;;;;;;4958433;28;92591;-73
2022/09/28 03:36:44;;;;;;;137.98;13.63;;;8.70;99.90;;;;;;4974189;28;95570;-72
2022/09/28 03:39:11;;;;;;;91.07;11.63;;;8.70;99.90;;;;;;4975922;28;92864;-73
2022/09/28 03:41:38;;;;;;;112.35;12.35;;;8.70;99.90;;;;;;4974661;28;92636;-73
2022/09/28 03:44:05;;;;;;;54.50;10.23;;;8.70;99.90;;;;;;4974099;28;92489;-73
2022/09/28 03:46:32;;;;;;;42.05;9.40;;;8.70;99.90;;;;;;4957053;28;97890;-73
2022/09/28 03:49:04;;;;;;;55.38;9.27;;;8.70;99.90;;;;;;4959070;28;97812;-73
2022/09/28 03:51:31;;;;;;;57.72;9.68;;;8.70;99.90;;;;;;4975461;28;92496;-73
2022/09/28 03:53:58;;;;;;;53.13;8.93;;;8.70;99.90;;;;;;4958895;28;92752;-73
2022/09/28 03:56:25;;;;;;;79.55;10.55;;;8.80;99.90;;;;;;4958470;28;95791;-73
2022/09/28 03:58:52;;;;;;;78.10;11.23;;;8.80;99.90;;;;;;4974316;28;94621;-73
2022/09/28 04:01:19;;;;;;;73.65;10.52;;;8.80;99.90;;;;;;4974293;28;93161;-73
2022/09/28 04:03:51;;;;;;;91.10;11.00;;;8.80;99.90;;;;;;4958768;28;92215;-73
2022/09/28 04:06:18;;;;;;;78.70;10.82;;;8.90;99.90;;;;;;4973948;28;95261;-73
2022/09/28 04:08:45;;;;;;;148.85;12.88;;;8.90;99.90;;;;;;4975757;28;93108;-72
2022/09/28 04:11:12;;;;;;;185.93;15.30;;;8.90;99.90;;;;;;4956676;28;94941;-73
2022/09/28 04:13:39;;;;;;;187.75;15.10;;;8.90;99.90;;;;;;4974360;28;93049;-73
2022/09/28 04:16:10;;;;;;;257.35;19.75;;;8.90;99.90;;;;;;4973831;28;95214;-72
2022/09/28 04:18:38;;;;;;;209.40;17.17;;;8.90;99.90;;;;;;4973350;28;95736;-73
2022/09/28 04:21:14;;;;;;;234.25;21.42;;;8.90;99.90;;;;;;4958575;28;92599;-73
2022/09/28 04:23:47;;;;;;;167.20;16.17;;;8.90;99.90;;;;;;4974374;28;93587;-73
2022/09/28 04:26:16;;;;;;;217.57;18.35;;;8.80;99.90;;;;;;4973757;28;95517;-73
2022/09/28 04:31:48;;;;;;;165.02;16.30;;;8.80;99.90;;;;;;4973920;28;92919;-73
2022/09/28 04:34:18;;;;;;;198.37;18.87;;;8.80;99.90;;;;;;4957678;28;92560;-73
2022/09/28 04:36:46;;;;;;;177.50;17.02;;;8.70;99.90;;;;;;4973848;28;95657;-73
2022/09/28 04:39:18;;;;;;;159.18;15.68;;;8.70;99.90;;;;;;4973488;28;98206;-73
2022/09/28 04:41:51;;;;;;;132.75;15.10;;;8.70;99.90;;;;;;4973861;28;92866;-73
2022/09/28 04:44:18;;;;;;;114.63;14.55;;;8.60;99.90;;;;;;4973687;28;93138;-73
2022/09/28 04:46:46;;;;;;;97.05;13.77;;;8.60;99.90;;;;;;4957538;28;95404;-72
2022/09/28 04:49:37;;;;;;;117.50;14.88;;;8.50;99.90;;;;;;4965570;28;92672;-73
2022/09/28 04:52:10;;;;;;;105.97;12.98;;;8.50;99.90;;;;;;4973862;28;92517;-72
2022/09/28 04:54:43;;;;;;;79.95;12.80;;;8.50;99.90;;;;;;4958658;28;91794;-72
2022/09/28 04:57:10;;;;;;;72.28;13.43;;;8.50;99.90;;;;;;4973461;28;95808;-73
2022/09/28 04:59:37;;;;;;;57.70;12.05;;;8.40;99.90;;;;;;4957300;28;95267;-73
2022/09/28 05:02:04;;;;;;;63.08;13.30;;;8.40;99.90;;;;;;4956089;28;94984;-72
2022/09/28 05:04:40;;;;;;;131.77;15.63;;;8.40;99.90;;;;;;4974209;28;92554;-72
2022/09/28 05:07:28;;;;;;;114.35;14.90;;;8.40;99.90;;;;;;4973157;28;93007;-72
2022/09/28 05:09:56;;;;;;;86.95;12.63;;;8.40;99.90;;;;;;4973479;28;95243;-72
2022/09/28 05:12:23;;;;;;;57.83;11.60;;;8.40;99.90;;;;;;4973378;28;92793;-72
2022/09/28 05:14:50;;;;;;;54.53;11.82;;;8.40;99.90;;;;;;4957301;28;92656;-73
2022/09/28 05:17:17;;;;;;;41.00;11.07;;;8.40;99.90;;;;;;4972981;28;95422;-73
2022/09/28 05:20:04;;;;;;;95.40;13.52;;;8.30;99.90;;;;;;4974388;28;92477;-73
2022/09/28 05:22:32;;;;;;;169.32;17.23;;;8.30;99.90;;;;;;4973221;28;92500;-72
2022/09/28 05:24:59;;;;;;;147.63;16.10;;;8.30;99.90;;;;;;4957157;28;92575;-73
2022/09/28 05:27:30;;;;;;;114.63;15.90;;;8.30;99.90;;;;;;4971744;28;97644;-73
2022/09/28 05:30:07;;;;;;;139.25;18.48;;;8.30;99.90;;;;;;4973038;28;97595;-73
2022/09/28 05:32:56;;;;;;;184.00;20.52;;;8.30;99.90;;;;;;4960110;28;92613;-73
2022/09/28 05:35:44;;;;;;;162.27;19.13;;;8.30;99.90;;;;;;4973974;28;92868;-73
2022/09/28 05:38:14;;;;;;;136.23;19.02;;;8.30;99.90;;;;;;4972937;28;95821;-72
2022/09/28 05:40:42;;;;;;;201.55;19.88;;;8.30;99.90;;;;;;4972772;28;95256;-73
2022/09/28 05:43:09;;;;;;;179.73;18.17;;;8.40;99.90;;;;;;4973074;28;92474;-72
2022/09/28 05:45:37;;;;;;;170.20;19.05;;;8.30;99.90;;;;;;4941482;28;91702;-72
2022/09/28 05:48:04;;;;;;;137.07;16.23;;;8.40;99.90;;;;;;4972752;28;95968;-72
2022/09/28 05:50:31;;;;;;;145.77;17.77;;;8.40;99.90;;;;;;4973028;28;93014;-72
2022/09/28 05:53:03;;;;;;;122.78;15.80;;;8.40;99.90;;;;;;4971646;28;94940;-72
2022/09/28 05:55:31;;;;;;;104.60;16.13;;;8.50;99.90;;;;;;4973035;28;93198;-72
2022/09/28 05:58:08;;;;;;;68.30;11.88;;;8.50;99.90;;;;;;4972958;28;95602;-72
2022/09/28 06:00:35;;;;;;;84.93;13.20;;;8.50;99.90;;;;;;4976383;28;92958;-72
2022/09/28 06:03:05;;;;;;;63.08;12.68;;;8.50;99.90;;;;;;4960209;28;93403;-72
2022/09/28 06:05:36;;;;;;;58.92;11.93;;;8.50;99.90;;;;;;4959979;28;92557;-73
2022/09/28 06:08:04;;;;;;;85.15;13.75;;;8.50;99.90;;;;;;4976008;28;95771;-72
2022/09/28 06:10:33;;;;;;;80.65;13.95;;;8.50;99.90;;;;;;4976160;28;95417;-73
2022/09/28 06:13:00;;;;;;;50.95;11.50;;;8.50;99.90;;;;;;4975874;28;92382;-73
2022/09/28 06:15:31;;;;;;;88.53;14.32;;;8.60;99.90;;;;;;4975874;28;92577;-73
2022/09/28 06:18:09;;;;;;;76.68;11.70;;;8.60;99.90;;;;;;4958492;28;98110;-72
2022/09/28 06:20:56;;;;;;;105.85;14.27;;;8.60;99.90;;;;;;4955682;28;95219;-72
2022/09/28 06:23:31;;;;;;;101.20;13.80;;;8.60;99.90;;;;;;4975586;28;92470;-73
2022/09/28 06:25:59;;;;;;;89.25;12.25;;;8.60;99.90;;;;;;4959954;28;92551;-72
2022/09/28 06:28:26;;;;;;;89.40;14.15;;;8.60;99.90;;;;;;4975372;28;94550;-73
2022/09/28 06:30:53;;;;;;;74.70;13.23;;;8.60;99.90;;;;;;4959120;28;95402;-73
2022/09/28 06:33:20;;;;;;;126.22;14.63;;;8.60;99.90;;;;;;4975614;28;93480;-72
2022/09/28 06:35:47;;;;;;;146.90;16.02;;;8.60;99.90;;;;;;4975790;28;92706;-73
2022/09/28 06:38:14;;;;;;;115.90;13.90;;;8.70;99.90;;;;;;4975561;28;95460;-72
2022/09/28 06:40:41;;;;;;;93.05;13.02;;;8.70;99.90;;;;;;4975022;28;95844;-72
2022/09/28 06:43:11;;;;;;;99.10;14.32;;;8.70;99.90;;;;;;4974260;28;95058;-72
2022/09/28 06:45:56;;;;;;;160.90;19.25;;;8.70;99.90;;;;;;4975058;28;92486;-73
2022/09/28 06:48:43;;;;;;;95.93;14.10;;;8.70;99.90;;;;;;4975554;28;92867;-73
2022/09/28 06:51:14;;;;;;;128.07;14.18;;;8.70;99.90;;;;;;4975399;28;94330;-72
2022/09/28 06:53:56;;;;;;;88.93;15.18;;;8.80;99.90;;;;;;4976869;28;92453;-73
2022/09/28 06:56:49;;;;;;;126.05;13.63;;;8.80;99.90;;;;;;4973458;28;93224;-72
2022/09/28 06:59:17;;;;;;;132.40;14.50;;;8.90;99.90;;;;;;4959140;28;95472;-72
2022/09/28 07:01:44;;;;;;;127.80;13.82;;;8.90;99.90;;;;;;4974975;28;95394;-73
2022/09/28 07:04:23;;;;;;;124.15;13.30;;;9.00;99.90;;;;;;4975407;28;92445;-73
2022/09/28 07:07:10;;;;;;;124.82;14.45;;;8.90;99.90;;;;;;4974123;28;92523;-72
2022/09/28 07:09:55;;;;;;;121.40;13.95;;;8.90;99.90;;;;;;4974224;28;95147;-73
2022/09/28 07:12:39;;;;;;;94.63;11.95;;;8.90;99.90;;;;;;4974344;28;98158;-72
2022/09/28 07:15:25;;;;;;;154.05;16.70;;;8.90;99.90;;;;;;4973785;28;93275;-73
2022/09/28 07:17:57;;;;;;;106.13;12.43;;;8.90;99.90;;;;;;4974768;28;92478;-73
2022/09/28 07:20:29;;;;;;;159.10;16.17;;;9.00;99.90;;;;;;4958608;28;96172;-73
2022/09/28 07:23:00;;;;;;;74.50;11.48;;;9.00;99.90;;;;;;4974360;28;95616;-72
2022/09/28 07:26:05;;;;;;;120.13;12.13;;;9.10;99.90;;;;;;4975637;28;92578;-72
2022/09/28 07:28:54;;;;;;;93.40;12.50;;;9.20;99.90;;;;;;4961437;28;91739;-73
2022/09/28 07:31:41;;;;;;;95.03;12.18;;;9.30;99.90;;;;;;4954483;28;92500;-73
2022/09/28 07:34:17;;;;;;;103.75;11.98;;;9.40;99.90;;;;;;4974516;28;92528;-73
2022/09/28 07:37:10;;;;;;;106.25;11.52;;;9.50;99.90;;;;;;4973400;28;94958;-73
2022/09/28 07:42:28;;;;;;;115.57;12.15;;;9.70;99.90;;;;;;4974458;28;96053;-73
2022/09/28 07:44:57;;;;;;;112.22;12.63;;;9.80;99.90;;;;;;4974174;28;94979;-73
2022/09/28 07:47:25;;;;;;;91.28;11.50;;;9.80;99.90;;;;;;4974534;28;92516;-73
2022/09/28 07:50:26;;;;;;;105.43;11.18;;;9.90;99.90;;;;;;4974579;28;92474;-73
2022/09/28 07:53:05;;;;;;;76.15;10.35;;;10.00;99.90;;;;;;4974151;28;95999;-72
2022/09/28 07:56:08;;;;;;;76.55;10.43;;;10.10;99.90;;;;;;4974637;28;92908;-73
2022/09/28 07:58:51;;;;;;;103.38;11.07;;;10.20;99.90;;;;;;4959973;28;92500;-72
2022/09/28 08:01:29;;;;;;;87.40;10.70;;;10.30;99.90;;;;;;4974197;28;92455;-73
2022/09/28 08:03:57;;;;;;;66.95;9.68;;;10.40;99.90;;;;;;4972452;28;97557;-73
2022/09/28 08:06:24;;;;;;;76.43;10.00;;;10.50;99.90;;;;;;4974416;28;97880;-72
2022/09/28 08:08:55;;;;;;;72.60;10.10;;;10.60;99.90;;;;;;4973814;28;92415;-73
2022/09/28 08:11:28;;;;;;;37.20;8.88;;;10.80;99.90;;;;;;4974095;28;92543;-73
2022/09/28 08:14:15;;;;;;;81.15;30.13;;;11.00;99.90;;;;;;4974569;28;94120;-73
2022/09/28 08:17:07;;;;;;;88.25;36.10;;;11.20;99.90;;;;;;4973771;28;95513;-72
2022/09/28 08:22:31;;;;;;;32.30;10.57;;;11.60;99.90;;;;;;4973893;28;91810;-73
2022/09/28 08:24:59;;;;;;;23.40;9.90;;;11.80;99.90;;;;;;4957985;28;95369;-73
2022/09/28 08:27:26;;;;;;;36.05;12.15;;;12.00;99.90;;;;;;4958320;28;95472;-73
2022/09/28 08:29:53;;;;;;;26.30;9.98;;;12.20;99.90;;;;;;4972660;28;95505;-72
2022/09/28 08:32:38;;;;;;;21.33;9.65;;;12.30;99.90;;;;;;4972650;28;92392;-72
2022/09/28 08:35:24;;;;;;;27.83;7.88;;;12.30;99.90;;;;;;4975289;28;92383;-72
2022/09/28 08:38:10;;;;;;;23.75;8.10;;;12.40;99.90;;;;;;4975865;28;93173;-72
2022/09/28 08:41:24;;;;;;;13.85;7.28;;;12.40;99.90;;;;;;4950753;28;92573;-72
2022/09/28 08:44:13;;;;;;;15.80;7.72;;;12.60;99.90;;;;;;4974145;28;92469;-72
2022/09/28 08:47:06;;;;;;;13.20;8.77;;;12.50;99.90;;;;;;4973634;28;92728;-72
2022/09/28 08:49:45;;;;;;;12.88;7.38;;;12.70;99.90;;;;;;4974487;28;95333;-72
2022/09/28 08:52:32;;;;;;;10.10;7.15;;;12.70;99.90;;;;;;4974380;28;92513;-72
2022/09/28 08:55:29;;;;;;;9.82;6.90;;;12.90;99.90;;;;;;4973515;28;92366;-72
2022/09/28 08:58:27;;;;;;;7.93;7.18;;;13.10;99.90;;;;;;4972802;28;97650;-72
2022/09/28 09:00:54;;;;;;;10.40;7.60;;;13.20;99.90;;;;;;4973438;28;97902;-72
2022/09/28 09:03:38;;;;;;;9.10;8.30;;;13.30;99.90;;;;;;4974229;28;92452;-72
2022/09/28 09:06:28;;;;;;;7.57;6.88;;;13.50;99.90;;;;;;4974319;28;92545;-72
2022/09/28 09:09:35;;;;;;;6.82;6.07;;;13.70;99.90;;;;;;4973774;28;95885;-72
2022/09/28 09:12:38;;;;;;;8.05;7.45;;;13.90;99.90;;;;;;4973808;28;95344;-72
2022/09/28 09:15:29;;;;;;;6.80;6.15;;;13.90;99.90;;;;;;4973843;28;92520;-72
2022/09/28 09:18:16;;;;;;;5.97;5.38;;;14.00;99.90;;;;;;4974347;28;91803;-72
2022/09/28 09:20:57;;;;;;;6.32;5.63;;;14.10;99.90;;;;;;4959102;28;95647;-72
2022/09/28 09:23:54;;;;;;;6.65;6.03;;;14.30;99.90;;;;;;4973734;28;95457;-72
2022/09/28 09:26:40;;;;;;;6.80;5.07;;;14.50;99.90;;;;;;4973054;28;94848;-72
2022/09/28 09:29:28;;;;;;;5.18;4.68;;;14.70;99.90;;;;;;4973886;28;92489;-72
2022/09/28 09:31:58;;;;;;;5.00;4.53;;;14.80;99.90;;;;;;4973655;28;95252;-72
2022/09/28 09:34:52;;;;;;;6.25;5.75;;;14.80;99.90;;;;;;4974384;28;95317;-72
2022/09/28 09:38:27;;;;;;;5.80;5.30;;;14.90;99.90;;;;;;4978465;28;92497;-72
2022/09/28 09:41:25;;;;;;;5.13;4.63;;;14.90;99.90;;;;;;4960111;28;92644;-72
2022/09/28 09:44:52;;;;;;;5.50;5.05;;;14.80;99.90;;;;;;4975897;28;93129;-72
2022/09/28 09:47:44;;;;;;;4.35;3.95;;;14.80;99.90;;;;;;4973279;28;92646;-72
2022/09/28 09:50:38;;;;;;;5.28;4.88;;;14.80;99.90;;;;;;4963212;28;92561;-72
2022/09/28 09:53:18;;;;;;;4.85;4.45;;;15.00;99.90;;;;;;4976580;28;92521;-72
2022/09/28 09:55:49;;;;;;;5.18;4.47;;;15.00;99.90;;;;;;4975532;28;98395;-72
2022/09/28 09:58:30;;;;;;;5.70;5.22;;;15.00;99.90;;;;;;4976695;28;97290;-72
2022/09/28 10:01:11;;;;;;;3.95;3.30;;;15.10;99.90;;;;;;4976690;28;92465;-72
2022/09/28 10:03:59;;;;;;;;;;;15.30;99.90;;;;;;4978298;28;92415;-72
2022/09/28 10:06:34;;;;;;;6.07;5.38;;;15.30;99.90;;;;;;4994052;28;95644;-72
2022/09/28 10:09:08;;;;;;;6.28;5.70;;;15.40;99.90;;;;;;4960228;28;95428;-72
2022/09/28 10:11:50;;;;;;;5.40;5.00;;;15.60;99.90;;;;;;4976690;28;92443;-72
2022/09/28 10:14:20;;;;;;;3.50;3.20;;;15.90;99.90;;;;;;4976778;28;92676;-72
2022/09/28 10:17:11;;;;;;;4.43;4.10;;;16.00;99.90;;;;;;4977387;28;93948;-72
2022/09/28 10:19:56;;;;;;;4.78;4.18;;;16.10;99.90;;;;;;4976851;28;93032;-72
2022/09/28 10:22:50;;;;;;;4.13;3.83;;;16.10;99.90;;;;;;4973474;28;94975;-72
2022/09/28 10:25:18;;;;;;;4.82;4.43;;;15.90;99.90;;;;;;4960115;28;92456;-72
2022/09/28 10:27:48;;;;;;;5.10;4.70;;;15.80;99.90;;;;;;4975926;28;94975;-72
2022/09/28 10:30:22;;;;;;;4.72;4.32;;;15.70;99.90;;;;;;4976115;28;95214;-72
2022/09/28 10:32:53;;;;;;;4.53;4.13;;;15.50;99.90;;;;;;4977711;28;92475;-72
2022/09/28 10:35:25;;;;;;;4.05;3.65;;;15.40;99.90;;;;;;4976201;28;93275;-72
2022/09/28 10:38:05;;;;;;;4.70;4.25;;;15.40;99.90;;;;;;4976037;28;95730;-72
2022/09/28 10:40:43;;;;;;;4.45;4.05;;;15.40;99.90;;;;;;4976788;28;92622;-72
2022/09/28 10:43:24;;;;;;;4.32;4.00;;;15.30;99.90;;;;;;4975926;28;93318;-72
2022/09/28 10:46:12;;;;;;;4.57;4.18;;;15.30;99.90;;;;;;4975176;28;92490;-72
2022/09/28 10:49:06;;;;;;;4.78;4.32;;;15.30;99.90;;;;;;4974503;28;97517;-71
2022/09/28 10:51:52;;;;;;;5.88;5.35;;;15.30;99.90;;;;;;4975523;28;97792;-72
2022/09/28 10:54:52;;;;;;;5.53;4.72;;;15.40;99.90;;;;;;4975766;28;93479;-72
2022/09/28 10:57:35;;;;;;;6.90;5.07;;;15.40;99.90;;;;;;4975671;28;92494;-72
2022/09/28 11:00:31;;;;;;;5.57;5.10;;;15.50;99.90;;;;;;4975240;28;95692;-72
2022/09/28 11:03:27;;;;;;;4.70;4.30;;;15.70;99.90;;;;;;4961562;28;94008;-71
2022/09/28 11:06:07;;;;;;;5.57;5.15;;;15.90;99.90;;;;;;4959992;28;92562;-72
2022/09/28 11:08:40;;;;;;;4.95;4.45;;;16.00;99.90;;;;;;4976385;28;92375;-72
2022/09/28 11:11:13;;;;;;;4.82;4.43;;;15.90;99.90;;;;;;4975499;28;95629;-72
2022/09/28 11:13:47;;;;;;;5.20;4.80;;;15.80;99.90;;;;;;4975571;28;93901;-72
2022/09/28 11:16:22;;;;;;;4.82;4.43;;;15.80;99.90;;;;;;4973966;28;94857;-71
2022/09/28 11:18:49;;;;;;;5.15;4.57;;;15.80;99.90;;;;;;4975306;28;93145;-72
2022/09/28 11:21:22;;;;;;;4.93;4.53;;;15.80;99.90;;;;;;4959337;28;94557;-72
2022/09/28 11:24:04;;;;;;;4.63;4.13;;;15.80;99.90;;;;;;4975206;28;94964;-72
2022/09/28 11:26:42;;;;;;;4.30;3.88;;;16.00;99.90;;;;;;4975632;28;92461;-72
2022/09/28 11:29:42;;;;;;;4.13;3.70;;;16.30;99.90;;;;;;4975075;28;92915;-72
2022/09/28 11:32:39;;;;;;;3.35;2.85;;;16.30;99.90;;;;;;4974269;28;93257;-72
2022/09/28 11:35:43;;;;;;;5.45;3.58;;;16.30;99.90;;;;;;4974859;28;92710;-72
2022/09/28 11:38:16;;;;;;;;;;;16.20;99.90;;;;;;4975367;28;92494;-70
2022/09/28 11:41:25;;;;;;;4.30;3.50;;;16.00;99.60;;;;;;4976399;28;92422;-70
2022/09/28 11:44:13;;;;;;;5.97;4.55;;;15.90;99.90;;;;;;4973738;28;98203;-70
2022/09/28 11:46:59;;;;;;;3.95;3.55;;;15.80;99.90;;;;;;4974831;28;97816;-70
2022/09/28 11:49:33;;;;;;;5.70;3.55;;;15.80;99.90;;;;;;4976399;28;92544;-70
2022/09/28 11:52:07;;;;;;;7.18;3.35;;;15.80;99.90;;;;;;4975231;28;92952;-72
2022/09/28 11:54:46;;;;;;;4.38;3.53;;;15.70;99.90;;;;;;4974759;28;95842;-71
2022/09/28 11:57:21;;;;;;;3.55;3.25;;;15.80;99.90;;;;;;4974694;28;95541;-70
2022/09/28 12:00:09;;;;;;;5.05;2.90;;;15.80;99.90;;;;;;4975114;28;92934;-72
2022/09/28 12:02:54;;;;;;;5.15;2.75;;;15.80;99.90;;;;;;4975514;28;91785;-73
2022/09/28 12:05:32;;;;;;;2.80;2.50;;;15.80;99.90;;;;;;4958909;28;95583;-71
2022/09/28 12:08:06;;;;;;;4.38;3.97;;;15.90;99.90;;;;;;4958668;28;95830;-72
2022/09/28 12:11:19;;;;;;;3.92;3.63;;;16.20;99.60;;;;;;4914116;28;94911;-72
2022/09/28 12:14:20;;;;;;;4.97;4.50;;;16.40;99.20;;;;;;4974876;28;92857;-71
2022/09/28 12:17:03;;;;;;;4.78;4.40;;;16.70;99.00;;;;;;4974721;28;96066;-70
2022/09/28 12:19:49;;;;;;;28.65;26.60;;;16.90;98.60;;;;;;4975553;28;93575;-72
2022/09/28 12:22:30;;;;;;;3.13;2.93;;;17.10;97.80;;;;;;4974181;28;93662;-71
2022/09/28 12:24:59;;;;;;;3.35;1.95;;;17.20;97.20;;;;;;4976355;28;92478;-71
2022/09/28 12:27:43;;;;;;;3.72;2.38;;;17.10;97.20;;;;;;4975578;28;93729;-71
2022/09/28 12:30:24;;;;;;;3.30;2.97;;;17.20;97.30;;;;;;4975208;28;91981;-70
2022/09/28 12:33:08;;;;;;;2.97;2.78;;;17.20;96.80;;;;;;4974645;28;92547;-70
2022/09/28 12:36:06;;;;;;;5.90;2.42;;;17.10;96.70;;;;;;4974748;28;92437;-70
2022/09/28 12:38:51;;;;;;;3.83;2.85;;;17.10;97.10;;;;;;4972697;28;100821;-71
2022/09/28 12:42:13;;;;;;;2.50;2.30;;;17.00;97.50;;;;;;4974152;28;97940;-71
2022/09/28 12:44:52;;;;;;;6.57;3.13;;;16.90;98.40;;;;;;4974321;28;92621;-71
2022/09/28 12:48:01;;;;;;;3.03;2.83;;;16.90;99.00;;;;;;4974281;28;92481;-71
2022/09/28 12:50:47;;;;;;;3.55;3.35;;;17.00;99.10;;;;;;4974418;28;93458;-71
2022/09/28 12:53:48;;;;;;;3.00;2.70;;;17.00;98.60;;;;;;4974269;28;93129;-70
2022/09/28 12:56:18;;;;;;;3.63;3.33;;;17.20;98.00;;;;;;4974255;28;92510;-70
2022/09/28 12:59:07;;;;;;;3.40;3.10;;;17.20;97.60;;;;;;4974302;28;91808;-71
2022/09/28 13:02:00;;;;;;;4.00;3.13;;;17.30;97.60;;;;;;4969462;28;95601;-72
2022/09/28 13:04:40;;;;;;;3.45;2.97;;;17.60;97.50;;;;;;4972877;28;94711;-74
2022/09/28 13:07:48;;;;;;;3.40;3.15;;;17.80;96.50;;;;;;4975457;28;95986;-74
2022/09/28 13:10:31;;;;;;;2.85;2.63;;;18.00;96.10;;;;;;4963934;28;93543;-77
2022/09/28 13:13:10;;;;;;;3.28;2.95;;;18.00;96.40;;;;;;4979104;28;93523;-73
2022/09/28 13:15:58;;;;;;;3.10;2.88;;;18.00;95.30;;;;;;4975177;28;93101;-75
2022/09/28 13:18:29;;;;;;;2.92;2.72;;;17.90;95.50;;;;;;4965270;28;92534;-76
2022/09/28 13:21:31;;;;;;;2.95;2.63;;;17.70;96.00;;;;;;4978701;28;92463;-74
2022/09/28 13:24:00;;;;;;;3.25;2.33;;;17.80;96.10;;;;;;4937130;28;95763;-75
2022/09/28 13:26:47;;;;;;;3.33;3.00;;;17.80;95.80;;;;;;4978756;28;93014;-75
2022/09/28 13:29:19;;;;;;;3.40;3.10;;;17.70;95.30;;;;;;4986226;28;92709;-73
2022/09/28 13:31:54;;;;;;;2.83;2.55;;;17.60;95.30;;;;;;4998474;28;92528;-73
2022/09/28 13:34:25;;;;;;;2.88;2.67;;;17.60;95.20;;;;;;4982314;28;98190;-73
2022/09/28 13:37:13;;;;;;;3.13;2.80;;;17.70;95.80;;;;;;4998670;28;95305;-73
2022/09/28 13:39:43;;;;;;;4.65;4.25;;;18.00;95.30;;;;;;4998291;28;92433;-73
2022/09/28 13:42:40;;;;;;;14.35;9.85;;;18.20;95.10;;;;;;4997015;28;92456;-74
2022/09/28 13:45:19;;;;;;;3.88;3.05;;;18.40;94.90;;;;;;4996782;28;93324;-72
2022/09/28 13:48:11;;;;;;;3.58;3.28;;;18.60;94.50;;;;;;4996451;28;93139;-73
2022/09/28 13:50:58;;;;;;;4.10;3.70;;;18.80;94.10;;;;;;4998526;28;92564;-72
2022/09/28 13:54:06;;;;;;;5.75;5.15;;;18.90;93.20;;;;;;4997013;28;91903;-72